• Join FlightAware (Why Join?)
  • Login
  • US Flag 
 
05:18PM EST


 

Airport Tracker/Info


-or-


 

Live Flight TrackerFlight Track Log ✈ N1820F ✈ 11-May-2013 ✈ KOBI - KDXR

Flight Track Log - Related Links

Times and Time Zones

All times are in EDT time to prevent confusion due to time zone crossing. See the N1820F flight status page for this flight to view local times or setup timezone preferences in your user account.

Time Position Orientation Groundspeed Altitude Reporting Facility
EDT Latitude Longitude Course Direction KTS MPH feet Rate Location/Type
08:36AM 39.2872 -74.7094 55° Northeast 153 176 2,300  Level Washington Center
08:38AM 39.3405 -74.6791 24° Northeast  Level Estimated
08:40AM 39.4472 -74.6428 24° Northeast 158 182 5,000  Level Washington Center
08:41AM 39.5455 -74.3909 55° Northeast  Level FlightAware Approximate
08:42AM 39.5003 -74.6117 24° Northeast  Level Estimated
08:45AM 39.6168 -74.5209 24° Northeast  Level Estimated
08:46AM 39.6562 -74.4982 24° Northeast  Level Estimated
08:49AM 39.7755 -74.4499 24° Northeast  Level Estimated
08:50AM 39.8147 -74.4267 24° Northeast  Level Estimated
08:51AM 39.8540 -74.4035 24° Northeast  Level Estimated
08:52AM 39.8933 -74.3802 24° Northeast  Level Estimated
08:53AM 39.9326 -74.3569 24° Northeast  Level Estimated
08:54AM 39.9718 -74.3336 24° Northeast  Level Estimated
08:55AM 40.0111 -74.3102 24° Northeast  Level Estimated
08:56AM 40.0504 -74.2868 25° Northeast  Level Estimated
08:56AM 40.2500 -74.5333 25° Northeast 177 204 4,200  Level New York TRACON
08:57AM 40.0896 -74.2634 25° Northeast  Level Estimated
08:57AM 40.2833 -74.5667 323° Northwest 168 193 3,900  Level New York TRACON
08:58AM 40.1289 -74.2400 25° Northeast  Level Estimated
08:58AM 40.3167 -74.5833 339° North 169 194 4,000  Level New York TRACON
08:59AM 40.1681 -74.2165 25° Northeast  Level Estimated
08:59AM 40.3667 -74.5833 360° North 185 213 4,000  Level New York TRACON
09:00AM 40.2073 -74.1930 25° Northeast  Level Estimated
09:00AM 40.4167 -74.5667 14° North 183 211 4,000  Level New York TRACON
09:01AM 40.2466 -74.1695 25° Northeast  Level Estimated
09:01AM 40.4667 -74.5667 360° North 177 204 4,000  Level New York TRACON
09:02AM 40.2858 -74.1460 25° Northeast  Level Estimated
09:02AM 40.5167 -74.5667 360° North 171 197 4,000  Level New York TRACON
09:03AM 40.5667 -74.5500 14° North 173 199 4,000  Level New York TRACON
09:04AM 40.6167 -74.5500 360° North 175 201 4,000  Level New York TRACON
09:05AM 40.6667 -74.5500 360° North 172 198 4,000  Level New York TRACON
09:06AM 40.7167 -74.5500 360° North 172 198 4,000  Level New York TRACON
09:07AM 40.7500 -74.5500 360° North 173 199 4,000  Level New York TRACON
09:08AM 40.8000 -74.5500 360° North 177 204 4,000  Level New York TRACON
09:09AM 40.8500 -74.5500 360° North 175 201 4,000  Level New York TRACON
09:10AM 40.9000 -74.5333 14° North 189 217 4,000  Level New York TRACON
09:11AM 40.9333 -74.4833 49° Northeast 194 223 4,000  Level New York TRACON
09:12AM 40.9667 -74.4333 49° Northeast 193 222 4,000 -120 Level New York TRACON
09:13AM 41.0000 -74.3667 56° Northeast 192 221 3,800 -360 Descending New York TRACON
09:14AM 41.0500 -74.3167 37° Northeast 208 239 3,300 -480 Descending New York TRACON
09:15AM 41.0833 -74.2667 48° Northeast 200 230 3,000 -180 Descending New York TRACON
09:16AM 41.1000 -74.2167 66° East 188 216 3,000  Level New York TRACON
09:17AM 41.1333 -74.1667 48° Northeast 189 217 3,000  Level New York TRACON
09:18AM 41.1667 -74.1167 48° Northeast 190 219 3,000  Level New York TRACON
09:19AM 41.1833 -74.0500 72° East 182 209 3,000  Level New York TRACON
09:20AM 41.2167 -74.0000 48° Northeast 186 214 3,000  Level New York TRACON
09:21AM 41.2500 -73.9500 48° Northeast 183 211 3,000 -360 Level New York TRACON
09:22AM 41.2667 -73.8667 75° East 194 223 2,300 -480 Descending New York TRACON
09:23AM 41.2833 -73.8000 72° East 186 214 2,100 -60 Descending New York TRACON
09:24AM 41.3000 -73.7500 66° East 174 200 2,200  Climbing New York TRACON
09:25AM 41.3167 -73.7000 66° East 173 199 2,100  Descending New York TRACON
09:26AM 41.3333 -73.6333 72° East 174 200 2,200 -60 Climbing New York TRACON
09:27AM 41.3500 -73.5833 66° East 170 196 2,000 -480 Descending New York TRACON
09:28AM 41.3667 -73.5167 72° East 183 211 1,200 -840 Descending New York TRACON
09:30AM 41.3715 -73.4822 62° Northeast  Level Estimated
09:37AM 41.3715 -73.4822 62° Northeast  Level Estimated
09:38AM 41.3715 -73.4822 62° Northeast  Level Estimated